»·PEaware :: N899M KSMF-KSAC

N899M :: KSMF-KSAC

FLIGHT INFORMATION

Flight Status: Arrived
Operator: Privately registered:
United States
More flights under this callsign
Pilot: Robert C. (30425)
Aircraft: Unknown
(EPIC)
More flights by this aircraft type
Origin: KSMF Sacramento Intl
United States
Destination: KSAC Sacramento Executive
United States
More flights between these airports :: More routes between these airports
Route:
File this flight plan on PilotEdge
Remarks:
Altitude:
(Current/Filed)
3,500ft
Speed:
(Current/Filed)
200kts
Departed: 31-Oct-20 02:45 PM
Arrived: 31-Oct-20 03:18 PM
Distance/Time
Traveled:
12nm/0:33
Distance/Time
To Go:
Arrived

Flight Plot

Page will automatically refresh every two minutes.

Flight plan parsing failed; only flown route is shown


Map Options




Map Legend


Flown Route
Filed Route
Departure Airport
Arrival Airport
Navaid (VOR, NDB)
Fix

Horizontal Profiles

Position Reports

Time Latitude Longitude Heading Altitude Ground
Speed
31-Oct-20 14:19 38.680157 -121.597858 6 20ft 0kts
31-Oct-20 14:20 38.680157 -121.597858 6 20ft 0kts
31-Oct-20 14:21 38.680157 -121.597858 6 20ft 0kts
31-Oct-20 14:22 38.680157 -121.597858 6 20ft 0kts
31-Oct-20 14:23 38.680157 -121.597858 6 20ft 0kts
31-Oct-20 14:24 38.680157 -121.597858 6 20ft 0kts
31-Oct-20 14:25 38.680157 -121.597858 6 20ft 0kts
31-Oct-20 14:26 38.680157 -121.597858 6 20ft 0kts
31-Oct-20 14:27 38.680157 -121.597858 6 20ft 0kts
31-Oct-20 14:28 38.680157 -121.597858 6 20ft 0kts
31-Oct-20 14:29 38.680157 -121.597858 6 20ft 0kts
31-Oct-20 14:30 38.680157 -121.597858 6 20ft 0kts
31-Oct-20 14:31 38.680157 -121.597858 6 20ft 0kts
31-Oct-20 14:32 38.680157 -121.597858 6 20ft 0kts
31-Oct-20 14:33 38.680157 -121.597858 6 20ft 0kts
31-Oct-20 14:34 38.680700 -121.598397 359 21ft 9kts
31-Oct-20 14:35 38.684750 -121.598872 359 22ft 16kts
31-Oct-20 14:36 38.691795 -121.598722 0 24ft 27kts
31-Oct-20 14:37 38.698450 -121.598587 1 24ft 21kts
31-Oct-20 14:38 38.704130 -121.598473 1 24ft 19kts
31-Oct-20 14:39 38.707387 -121.598715 283 25ft 0kts
31-Oct-20 14:40 38.707387 -121.598715 283 25ft 0kts
31-Oct-20 14:41 38.707391 -121.598756 270 25ft 1kts
31-Oct-20 14:42 38.707172 -121.599676 272 25ft 0kts
31-Oct-20 14:43 38.706258 -121.601064 178 25ft 13kts
31-Oct-20 14:44 38.666131 -121.600583 179 665ft 236kts
31-Oct-20 14:45 38.594499 -121.602577 184 1771ft 258kts
31-Oct-20 14:46 38.527393 -121.607374 184 2440ft 230kts
31-Oct-20 14:47 38.462475 -121.611991 184 2521ft 237kts
31-Oct-20 14:48 38.401461 -121.590806 139 2522ft 239kts
31-Oct-20 14:49 38.355785 -121.529538 110 2512ft 239kts
31-Oct-20 14:50 38.344482 -121.446977 92 2526ft 238kts
31-Oct-20 14:51 38.341446 -121.362445 92 2530ft 238kts
31-Oct-20 14:52 38.335816 -121.279334 94 2667ft 229kts
31-Oct-20 14:53 38.329844 -121.201729 87 2666ft 213kts
31-Oct-20 14:54 38.338880 -121.128483 77 2677ft 208kts
31-Oct-20 14:55 38.362138 -121.062789 37 2690ft 203kts
31-Oct-20 14:56 38.413824 -121.036763 11 2693ft 201kts
31-Oct-20 14:57 38.469341 -121.030025 1 2694ft 201kts
31-Oct-20 14:58 38.524498 -121.038339 347 2693ft 201kts
31-Oct-20 14:59 38.579174 -121.052848 347 2692ft 201kts
31-Oct-20 15:00 38.633854 -121.067293 347 2699ft 200kts
31-Oct-20 15:01 38.687226 -121.087669 341 2701ft 200kts
31-Oct-20 15:02 38.710317 -121.141969 255 2686ft 204kts
31-Oct-20 15:03 38.685894 -121.207629 276 2643ft 203kts
31-Oct-20 15:04 38.722650 -121.259018 337 2638ft 199kts
31-Oct-20 15:05 38.775518 -121.279642 343 2658ft 199kts
31-Oct-20 15:06 38.829270 -121.292147 21 2654ft 202kts
31-Oct-20 15:07 38.817534 -121.243793 183 2674ft 205kts
31-Oct-20 15:08 38.761862 -121.255717 201 2363ft 199kts
31-Oct-20 15:09 38.715071 -121.290734 217 1752ft 186kts
31-Oct-20 15:10 38.676806 -121.326834 218 1531ft 151kts
31-Oct-20 15:11 38.646429 -121.356039 219 1534ft 124kts
31-Oct-20 15:12 38.621251 -121.380344 219 1547ft 110kts
31-Oct-20 15:13 38.592022 -121.408602 218 1556ft 149kts
31-Oct-20 15:14 38.557502 -121.445018 228 1518ft 130kts
31-Oct-20 15:15 38.535936 -121.474841 220 648ft 115kts
31-Oct-20 15:16 38.513437 -121.493881 208 22ft 52kts
31-Oct-20 15:17 38.511361 -121.496931 280 21ft 6kts
31-Oct-20 15:18 38.512671 -121.498064 301 21ft 7kts
31-Oct-20 15:19 38.512922 -121.498211 15 21ft 0kts
31-Oct-20 15:20 38.512922 -121.498211 15 21ft 0kts
31-Oct-20 15:21 38.512922 -121.498211 15 21ft 0kts

Navigation Log

Ident Type
Flight plan parsing failed, navigation log unavailable